Time;durP1;ratioP1;P1;durP2;ratioP2;P2;SDS_P1;SDS_P2;PMS_P1;PMS_P2;Temp;Humidity;BMP_temperature;BMP_pressure;BME280_temperature;BME280_humidity;BME280_pressure;Samples;Min_cycle;Max_cycle;Signal;HPM_P1;HPM_P2
2022/09/17 00:00:21;;;;;;;14.17;1.10;;;;;9.60;95609.00;;;;5115687;28;20591;-69
2022/09/17 00:02:54;;;;;;;0.50;0.50;;;;;9.50;95612.00;;;;5115817;28;20286;-71
2022/09/17 00:05:22;;;;;;;0.50;0.50;;;;;9.50;95619.00;;;;5097793;28;20233;-68
2022/09/17 00:07:49;;;;;;;0.50;0.50;;;;;9.30;95615.00;;;;5115846;28;20214;-70
2022/09/17 00:10:17;;;;;;;0.50;0.50;;;;;9.50;95611.00;;;;5097593;28;20201;-71
2022/09/17 00:12:44;;;;;;;0.60;0.60;;;;;9.50;95620.00;;;;5115458;28;20209;-71
2022/09/17 00:15:11;;;;;;;0.57;0.57;;;;;9.50;95609.00;;;;5115615;28;20194;-71
2022/09/17 00:17:41;;;;;;;0.50;0.50;;;;;9.60;95613.00;;;;5115609;28;20217;-71
2022/09/17 00:20:09;;;;;;;0.70;0.70;;;;;9.40;95614.00;;;;5115569;28;20300;-70
2022/09/17 00:22:36;;;;;;;0.50;0.50;;;;;9.50;95605.00;;;;5115387;28;20222;-71
2022/09/17 00:25:04;;;;;;;0.60;0.60;;;;;9.40;95572.00;;;;5115453;28;20194;-71
2022/09/17 00:27:30;;;;;;;0.53;0.53;;;;;9.40;95610.00;;;;5115362;28;20302;-71
2022/09/17 00:29:58;;;;;;;0.50;0.50;;;;;9.40;95605.00;;;;5115390;28;20213;-71
2022/09/17 00:32:26;;;;;;;0.70;0.70;;;;;9.60;95612.00;;;;5115206;28;20221;-71
2022/09/17 00:34:53;;;;;;;0.50;0.50;;;;;9.50;95620.00;;;;5115214;28;20198;-70
2022/09/17 00:37:20;;;;;;;0.57;0.57;;;;;9.40;95620.00;;;;5115141;28;20186;-70
2022/09/17 00:39:47;;;;;;;0.60;0.60;;;;;9.30;95628.00;;;;5115108;28;20236;-71
2022/09/17 00:42:18;;;;;;;0.50;0.50;;;;;9.40;95625.00;;;;5115051;28;20193;-71
2022/09/17 00:44:48;;;;;;;0.57;0.57;;;;;9.30;95624.00;;;;5115155;28;20193;-71
2022/09/17 00:47:27;;;;;;;0.50;0.50;;;;;9.20;95625.00;;;;5115063;28;20202;-71
2022/09/17 00:49:59;;;;;;;0.60;0.60;;;;;9.30;95626.00;;;;5115174;28;20202;-71
2022/09/17 00:52:31;;;;;;;0.80;0.80;;;;;9.30;95625.00;;;;5114979;28;20196;-67
2022/09/17 00:55:03;;;;;;;0.50;0.50;;;;;9.30;95626.00;;;;5115033;28;20190;-73
2022/09/17 00:57:31;;;;;;;0.70;0.70;;;;;9.40;95630.00;;;;5096820;28;20566;-71
2022/09/17 00:59:58;;;;;;;0.70;0.70;;;;;9.40;95637.00;;;;5114841;28;20217;-71
2022/09/17 01:02:26;;;;;;;0.60;0.60;;;;;9.40;95633.00;;;;5114700;28;20198;-72
2022/09/17 01:04:53;;;;;;;0.60;0.60;;;;;9.50;95648.00;;;;5115081;28;20309;-72
2022/09/17 01:07:47;;;;;;;0.60;0.60;;;;;9.40;95641.00;;;;5114799;28;20215;-73
2022/09/17 01:10:26;;;;;;;0.70;0.70;;;;;9.50;95643.00;;;;5115037;28;20221;-71
2022/09/17 01:13:06;;;;;;;0.60;0.60;;;;;9.50;95633.00;;;;5114682;28;20221;-71
2022/09/17 01:15:41;;;;;;;0.70;0.70;;;;;9.40;95643.00;;;;5114773;28;20228;-71
2022/09/17 01:18:21;;;;;;;0.70;0.70;;;;;9.50;95641.00;;;;5096715;28;20228;-70
2022/09/17 01:21:26;;;;;;;0.50;0.50;;;;;9.50;95646.00;;;;5114764;28;20214;-70
2022/09/17 01:24:38;;;;;;;0.50;0.50;;;;;9.40;95643.00;;;;5114458;28;20546;-70
2022/09/17 01:27:32;;;;;;;0.83;0.83;;;;;9.50;95653.00;;;;5114642;28;20198;-71
2022/09/17 01:30:18;;;;;;;0.50;0.50;;;;;9.40;95647.00;;;;5114439;28;20198;-71
2022/09/17 01:32:50;;;;;;;1.00;1.00;;;;;9.50;95657.00;;;;5096750;28;20663;-70
2022/09/17 01:35:24;;;;;;;0.50;0.50;;;;;9.50;95647.00;;;;5114538;28;20194;-71
2022/09/17 01:38:00;;;;;;;3.30;1.27;;;;;9.40;95650.00;;;;5114260;28;20269;-70
2022/09/17 01:40:34;;;;;;;0.60;0.60;;;;;9.40;95647.00;;;;5114281;28;20233;-70
2022/09/17 01:43:07;;;;;;;1.47;1.07;;;;;9.40;95650.00;;;;5114338;28;20260;-70
2022/09/17 01:45:39;;;;;;;0.70;0.70;;;;;9.40;95655.00;;;;5123771;28;20698;-70
2022/09/17 01:48:11;;;;;;;0.60;0.60;;;;;9.40;95645.00;;;;5122702;28;20286;-70
2022/09/17 01:50:43;;;;;;;0.70;0.70;;;;;9.40;95642.00;;;;5114008;28;20206;-68
2022/09/17 01:53:11;;;;;;;0.60;0.60;;;;;9.30;95647.00;;;;5113915;28;20222;-71
2022/09/17 01:55:41;;;;;;;0.63;0.63;;;;;9.20;95650.00;;;;5114048;28;20532;-70
2022/09/17 01:58:13;;;;;;;0.50;0.50;;;;;9.30;95654.00;;;;5113786;28;20229;-70
2022/09/17 02:00:48;;;;;;;0.50;0.50;;;;;9.30;95657.00;;;;5113966;28;20286;-69
2022/09/17 02:03:20;;;;;;;1.10;1.10;;;;;9.30;95654.00;;;;5114029;28;20300;-71
2022/09/17 02:05:53;;;;;;;0.50;0.50;;;;;9.30;95655.00;;;;5114052;28;20218;-70
2022/09/17 02:08:22;;;;;;;0.70;0.70;;;;;9.40;95652.00;;;;5113972;28;20300;-71
2022/09/17 02:10:52;;;;;;;0.50;0.50;;;;;9.40;95654.00;;;;5095868;28;20648;-71
2022/09/17 02:13:25;;;;;;;0.70;0.70;;;;;9.40;95650.00;;;;5114157;28;20218;-70
2022/09/17 02:15:55;;;;;;;0.70;0.70;;;;;9.20;95654.00;;;;5120474;28;20227;-71
2022/09/17 02:18:28;;;;;;;1.80;0.93;;;;;9.20;95652.00;;;;5120435;28;20296;-71
2022/09/17 02:21:02;;;;;;;0.60;0.60;;;;;9.10;95649.00;;;;5120384;28;20205;-71
2022/09/17 02:23:34;;;;;;;0.50;0.50;;;;;9.20;95658.00;;;;5120501;28;20250;-70
2022/09/17 02:26:06;;;;;;;0.70;0.70;;;;;9.20;95654.00;;;;5120591;28;20190;-71
2022/09/17 02:28:40;;;;;;;0.80;0.80;;;;;9.20;95652.00;;;;5120398;27;20249;-71
2022/09/17 02:31:06;;;;;;;0.60;0.60;;;;;9.10;95647.00;;;;5120537;28;20201;-71
2022/09/17 02:33:36;;;;;;;0.50;0.50;;;;;9.00;95637.00;;;;5120265;28;20320;-71
2022/09/17 02:36:03;;;;;;;2.43;1.03;;;;;9.10;95642.00;;;;5120271;28;20648;-71
2022/09/17 02:38:31;;;;;;;0.60;0.60;;;;;9.10;95643.00;;;;5120344;28;20219;-71
2022/09/17 02:41:04;;;;;;;0.70;0.70;;;;;9.10;95642.00;;;;5120160;28;20245;-71
2022/09/17 02:43:38;;;;;;;2.57;0.83;;;;;8.90;95650.00;;;;5120207;28;20214;-71
2022/09/17 02:46:22;;;;;;;0.60;0.60;;;;;9.10;95650.00;;;;5120225;28;20246;-70
2022/09/17 02:49:24;;;;;;;0.60;0.60;;;;;9.00;95653.00;;;;5120096;28;20246;-71
2022/09/17 02:51:59;;;;;;;0.60;0.60;;;;;8.90;95654.00;;;;5112008;28;20205;-70
2022/09/17 02:54:30;;;;;;;1.20;1.17;;;;;8.80;95654.00;;;;5120102;28;20221;-71
2022/09/17 02:57:04;;;;;;;1.03;1.03;;;;;8.90;95652.00;;;;5121162;28;20174;-69
2022/09/17 02:59:37;;;;;;;0.70;0.70;;;;;8.70;95646.00;;;;5119997;28;20213;-71
2022/09/17 03:02:08;;;;;;;0.50;0.50;;;;;8.50;95641.00;;;;5119973;28;20221;-71
2022/09/17 03:04:37;;;;;;;0.63;0.63;;;;;8.70;95650.00;;;;5119871;28;20226;-71
2022/09/17 03:07:08;;;;;;;0.60;0.60;;;;;8.70;95645.00;;;;5119806;27;20558;-70
2022/09/17 03:09:34;;;;;;;0.60;0.60;;;;;8.60;95653.00;;;;5119905;28;20668;-70
2022/09/17 03:12:02;;;;;;;0.60;0.60;;;;;8.80;95636.00;;;;5119806;28;20638;-70
2022/09/17 03:14:29;;;;;;;0.90;0.90;;;;;8.80;95647.00;;;;5119694;28;20265;-70
2022/09/17 03:16:56;;;;;;;0.70;0.70;;;;;8.70;95643.00;;;;5119733;28;20213;-71
2022/09/17 03:19:23;;;;;;;0.50;0.50;;;;;8.60;95642.00;;;;5119685;28;20222;-72
2022/09/17 03:21:49;;;;;;;0.70;0.70;;;;;8.60;95645.00;;;;5119802;28;20233;-71
2022/09/17 03:24:19;;;;;;;1.23;1.23;;;;;8.60;95635.00;;;;5119538;28;20546;-70
2022/09/17 03:26:49;;;;;;;0.60;0.60;;;;;8.70;95637.00;;;;5115460;28;20194;-70
2022/09/17 03:29:16;;;;;;;0.60;0.60;;;;;8.50;95628.00;;;;5116145;28;20217;-70
2022/09/17 03:31:43;;;;;;;0.60;0.60;;;;;8.50;95638.00;;;;5116170;28;20201;-71
2022/09/17 03:34:09;;;;;;;0.60;0.60;;;;;8.70;95642.00;;;;5115984;28;20222;-70
2022/09/17 03:36:36;;;;;;;0.70;0.70;;;;;8.50;95642.00;;;;5116215;28;20198;-70
2022/09/17 03:39:03;;;;;;;0.60;0.60;;;;;8.60;95642.00;;;;5116044;28;20270;-70
2022/09/17 03:41:31;;;;;;;0.80;0.80;;;;;8.50;95650.00;;;;5116103;28;20282;-71
2022/09/17 03:43:58;;;;;;;0.60;0.60;;;;;8.50;95641.00;;;;5115959;28;20222;-70
2022/09/17 03:46:24;;;;;;;0.60;0.60;;;;;8.50;95660.00;;;;5116142;28;20178;-70
2022/09/17 03:48:51;;;;;;;0.50;0.50;;;;;8.50;95652.00;;;;5115938;28;20205;-70
2022/09/17 03:51:18;;;;;;;0.60;0.60;;;;;8.60;95653.00;;;;5115965;28;20513;-70
2022/09/17 03:53:45;;;;;;;7.90;0.80;;;;;8.60;95666.00;;;;5116064;28;20212;-70
2022/09/17 03:56:12;;;;;;;0.70;0.70;;;;;8.50;95659.00;;;;5115965;28;20216;-71
2022/09/17 03:58:39;;;;;;;0.90;0.90;;;;;8.50;95664.00;;;;5115847;28;20197;-69
2022/09/17 04:01:06;;;;;;;0.57;0.57;;;;;8.50;95659.00;;;;5115824;28;20225;-70
2022/09/17 04:03:33;;;;;;;0.90;0.90;;;;;8.50;95668.00;;;;5115944;28;20190;-69
2022/09/17 04:06:00;;;;;;;0.53;0.53;;;;;8.40;95667.00;;;;5115802;28;20190;-71
2022/09/17 04:08:26;;;;;;;0.70;0.70;;;;;8.30;95676.00;;;;5115697;28;20544;-71
2022/09/17 04:10:54;;;;;;;0.60;0.60;;;;;8.30;95669.00;;;;5115717;28;20201;-70
2022/09/17 04:13:21;;;;;;;0.50;0.50;;;;;8.40;95669.00;;;;5115732;28;20627;-70
2022/09/17 04:15:49;;;;;;;0.87;0.87;;;;;8.30;95667.00;;;;5097632;28;20283;-67
2022/09/17 04:18:16;;;;;;;0.63;0.63;;;;;8.20;95665.00;;;;5115656;28;20190;-69
2022/09/17 04:20:43;;;;;;;0.50;0.50;;;;;8.10;95670.00;;;;5115527;28;20298;-70
2022/09/17 04:23:11;;;;;;;1.37;1.27;;;;;8.10;95667.00;;;;5115762;28;20627;-69
2022/09/17 04:25:45;;;;;;;1.37;1.33;;;;;8.10;95670.00;;;;5123534;28;20214;-71
2022/09/17 04:28:12;;;;;;;0.60;0.60;;;;;8.00;95665.00;;;;5106455;28;20202;-70
2022/09/17 04:30:41;;;;;;;0.80;0.80;;;;;8.00;95661.00;;;;5123538;28;20226;-70
2022/09/17 04:33:09;;;;;;;0.60;0.60;;;;;8.00;95655.00;;;;5117483;28;20225;-71
2022/09/17 04:35:38;;;;;;;0.60;0.60;;;;;8.00;95661.00;;;;5115511;28;20243;-71
2022/09/17 04:38:08;;;;;;;1.20;1.13;;;;;7.90;95664.00;;;;5115134;28;20208;-71
2022/09/17 04:40:35;;;;;;;1.13;1.13;;;;;8.00;95662.00;;;;5115050;28;20218;-70
2022/09/17 04:43:02;;;;;;;0.80;0.80;;;;;8.00;95670.00;;;;5115209;28;20705;-68
2022/09/17 04:45:32;;;;;;;0.60;0.60;;;;;8.00;95668.00;;;;5115076;28;20228;-70
2022/09/17 04:47:58;;;;;;;0.90;0.90;;;;;7.90;95663.00;;;;5115118;28;20194;-71
2022/09/17 04:50:26;;;;;;;0.50;0.50;;;;;7.80;95667.00;;;;5114952;28;20222;-71
2022/09/17 04:52:53;;;;;;;0.60;0.60;;;;;7.90;95671.00;;;;5115020;28;20342;-70
2022/09/17 04:55:20;;;;;;;1.03;1.03;;;;;7.80;95668.00;;;;5114855;28;20216;-71
2022/09/17 04:57:47;;;;;;;0.50;0.50;;;;;7.90;95665.00;;;;5114957;28;20197;-71
2022/09/17 05:00:16;;;;;;;0.90;0.90;;;;;7.90;95680.00;;;;5114707;28;20233;-71
2022/09/17 05:02:45;;;;;;;0.60;0.60;;;;;7.80;95680.00;;;;5096660;28;20202;-72
2022/09/17 05:05:12;;;;;;;0.93;0.93;;;;;7.90;95687.00;;;;5114758;28;20266;-71
2022/09/17 05:07:39;;;;;;;0.80;0.80;;;;;7.80;95692.00;;;;5114811;28;20193;-73
2022/09/17 05:10:08;;;;;;;0.73;0.73;;;;;7.90;95694.00;;;;5114831;28;20677;-70
2022/09/17 05:12:35;;;;;;;0.50;0.50;;;;;7.90;95699.00;;;;5114750;28;20201;-72
2022/09/17 05:15:06;;;;;;;0.60;0.60;;;;;7.80;95692.00;;;;5114571;28;20670;-71
2022/09/17 05:17:33;;;;;;;0.93;0.93;;;;;7.80;95696.00;;;;5096741;28;20729;-71
2022/09/17 05:20:02;;;;;;;0.60;0.60;;;;;7.70;95704.00;;;;5114412;28;20218;-71
2022/09/17 05:22:29;;;;;;;4.20;1.23;;;;;7.90;95697.00;;;;5114487;28;20232;-71
2022/09/17 05:24:56;;;;;;;0.77;0.77;;;;;8.00;95693.00;;;;5114428;28;20661;-72
2022/09/17 05:27:25;;;;;;;0.60;0.60;;;;;7.90;95706.00;;;;5114396;28;20210;-72
2022/09/17 05:29:52;;;;;;;0.50;0.50;;;;;8.10;95703.00;;;;5114228;28;20198;-69
2022/09/17 05:32:19;;;;;;;0.50;0.50;;;;;8.10;95702.00;;;;5114640;28;20200;-73
2022/09/17 05:34:45;;;;;;;0.60;0.60;;;;;8.10;95700.00;;;;5114508;28;20204;-72
2022/09/17 05:37:12;;;;;;;1.10;1.10;;;;;8.00;95706.00;;;;5114427;28;20197;-72
2022/09/17 05:39:39;;;;;;;0.70;0.70;;;;;8.10;95708.00;;;;5114164;28;20198;-72
2022/09/17 05:42:07;;;;;;;0.90;0.90;;;;;8.20;95706.00;;;;5114216;28;20229;-72
2022/09/17 05:44:34;;;;;;;0.90;0.90;;;;;8.00;95703.00;;;;5114249;28;20193;-72
2022/09/17 05:47:01;;;;;;;0.70;0.70;;;;;8.10;95706.00;;;;5114227;28;20633;-72
2022/09/17 05:49:27;;;;;;;0.60;0.60;;;;;8.00;95697.00;;;;5113296;28;20653;-72
2022/09/17 05:51:54;;;;;;;0.50;0.50;;;;;8.10;95696.00;;;;5114131;28;20194;-71
2022/09/17 05:54:21;;;;;;;0.93;0.93;;;;;8.20;95701.00;;;;5114159;28;20281;-71
2022/09/17 05:56:51;;;;;;;0.80;0.80;;;;;8.40;95698.00;;;;5114105;28;20200;-71
2022/09/17 05:59:19;;;;;;;0.80;0.80;;;;;8.40;95699.00;;;;5114107;28;20201;-71
2022/09/17 06:01:46;;;;;;;0.60;0.60;;;;;8.60;95716.00;;;;5113986;28;20214;-71
2022/09/17 06:04:13;;;;;;;0.60;0.60;;;;;8.50;95720.00;;;;5114059;28;20209;-71
2022/09/17 06:06:40;;;;;;;0.60;0.60;;;;;8.50;95716.00;;;;5113958;28;20228;-71
2022/09/17 06:09:07;;;;;;;1.07;1.07;;;;;8.50;95723.00;;;;5114017;28;20248;-71
2022/09/17 06:11:35;;;;;;;0.50;0.50;;;;;8.40;95729.00;;;;5113977;28;20233;-72
2022/09/17 06:14:01;;;;;;;0.60;0.60;;;;;8.30;95741.00;;;;5113962;28;20202;-72
2022/09/17 06:16:29;;;;;;;0.90;0.90;;;;;8.30;95734.00;;;;5113776;28;20677;-72
2022/09/17 06:18:56;;;;;;;0.50;0.50;;;;;8.30;95738.00;;;;5113771;28;20197;-71
2022/09/17 06:21:23;;;;;;;6.03;1.77;;;;;8.30;95740.00;;;;5095648;28;20377;-71
2022/09/17 06:23:50;;;;;;;1.00;1.00;;;;;8.30;95754.00;;;;5113648;28;20544;-71
2022/09/17 06:26:17;;;;;;;0.80;0.80;;;;;8.20;95754.00;;;;5113536;28;20217;-71
2022/09/17 06:28:44;;;;;;;0.60;0.60;;;;;8.30;95754.00;;;;5095633;28;20197;-72
2022/09/17 06:31:12;;;;;;;0.50;0.50;;;;;8.30;95757.00;;;;5113468;28;20278;-72
2022/09/17 06:33:40;;;;;;;0.70;0.70;;;;;8.40;95769.00;;;;5113515;28;20204;-73
2022/09/17 06:36:10;;;;;;;0.63;0.63;;;;;8.30;95755.00;;;;5113480;28;20636;-72
2022/09/17 06:38:39;;;;;;;0.60;0.60;;;;;8.30;95756.00;;;;5113651;28;20319;-72
2022/09/17 06:41:05;;;;;;;0.70;0.70;;;;;8.10;95747.00;;;;5113392;28;20226;-71
2022/09/17 06:43:32;;;;;;;0.60;0.60;;;;;8.10;95768.00;;;;5095616;28;20202;-70
2022/09/17 06:46:01;;;;;;;0.93;0.93;;;;;8.20;95765.00;;;;5113524;28;20225;-71
2022/09/17 06:48:29;;;;;;;0.60;0.60;;;;;8.20;95767.00;;;;5113385;28;20202;-72
2022/09/17 06:51:02;;;;;;;0.50;0.50;;;;;8.20;95774.00;;;;5113473;28;20245;-70
2022/09/17 06:53:30;;;;;;;0.77;0.77;;;;;8.20;95773.00;;;;5113348;28;20288;-72
2022/09/17 06:55:57;;;;;;;2.53;1.77;;;;;8.00;95772.00;;;;5113309;28;20221;-71
2022/09/17 06:58:24;;;;;;;0.90;0.90;;;;;8.10;95782.00;;;;5113339;28;20194;-71
2022/09/17 07:00:59;;;;;;;0.80;0.80;;;;;8.10;95785.00;;;;5115129;28;20226;-71
2022/09/17 07:03:26;;;;;;;0.60;0.60;;;;;8.10;95773.00;;;;5098824;28;20642;-71
2022/09/17 07:05:55;;;;;;;1.00;1.00;;;;;8.20;95776.00;;;;5116677;28;20241;-72
2022/09/17 07:08:25;;;;;;;1.07;1.07;;;;;8.40;95773.00;;;;5116645;28;20235;-71
2022/09/17 07:10:54;;;;;;;1.00;1.00;;;;;8.40;95775.00;;;;5120856;28;20222;-70
2022/09/17 07:13:20;;;;;;;1.00;1.00;;;;;8.30;95774.00;;;;5122726;28;20623;-71
2022/09/17 07:15:53;;;;;;;0.70;0.70;;;;;8.40;95780.00;;;;5121102;28;20229;-71
2022/09/17 07:18:20;;;;;;;0.77;0.77;;;;;8.50;95774.00;;;;5116529;28;20197;-71
2022/09/17 07:20:53;;;;;;;1.40;1.30;;;;;8.50;95780.00;;;;5116254;28;20218;-71
2022/09/17 07:23:21;;;;;;;0.70;0.70;;;;;8.60;95777.00;;;;5116393;28;20206;-71
2022/09/17 07:25:51;;;;;;;1.77;1.67;;;;;8.60;95780.00;;;;5116371;28;20194;-70
2022/09/17 07:28:18;;;;;;;0.50;0.50;;;;;8.70;95784.00;;;;5098450;28;20284;-71
2022/09/17 07:30:45;;;;;;;0.67;0.67;;;;;8.70;95792.00;;;;5116159;28;20198;-71
2022/09/17 07:33:12;;;;;;;0.73;0.73;;;;;8.80;95798.00;;;;5116450;28;20560;-71
2022/09/17 07:35:39;;;;;;;1.03;1.03;;;;;8.80;95798.00;;;;5116244;28;20190;-71
2022/09/17 07:38:06;;;;;;;0.90;0.90;;;;;8.70;95798.00;;;;5116213;28;20190;-71
2022/09/17 07:40:33;;;;;;;0.97;0.97;;;;;8.70;95802.00;;;;5116423;28;20641;-71
2022/09/17 07:43:00;;;;;;;0.60;0.60;;;;;8.80;95805.00;;;;5116225;28;20208;-71
2022/09/17 07:45:27;;;;;;;0.70;0.70;;;;;8.90;95802.00;;;;5116297;28;20186;-71
2022/09/17 07:47:53;;;;;;;0.70;0.70;;;;;9.10;95804.00;;;;5116262;28;20541;-71
2022/09/17 07:50:20;;;;;;;0.97;0.93;;;;;9.10;95798.00;;;;5115892;28;20286;-71
2022/09/17 07:52:49;;;;;;;0.70;0.70;;;;;8.90;95800.00;;;;5115891;28;20204;-72
2022/09/17 07:55:16;;;;;;;0.60;0.60;;;;;9.00;95796.00;;;;5115921;28;20220;-72
2022/09/17 07:57:49;;;;;;;0.77;0.77;;;;;9.30;95801.00;;;;5115752;28;20220;-71
2022/09/17 08:00:16;;;;;;;0.60;0.60;;;;;9.30;95809.00;;;;5115606;28;20186;-71
2022/09/17 08:02:43;;;;;;;0.60;0.60;;;;;9.10;95812.00;;;;5115669;28;20218;-71
2022/09/17 08:05:09;;;;;;;0.80;0.80;;;;;9.10;95809.00;;;;5115866;28;20208;-69
2022/09/17 08:07:36;;;;;;;0.60;0.60;;;;;9.00;95824.00;;;;5115486;28;20198;-68
2022/09/17 08:10:04;;;;;;;0.60;0.60;;;;;8.90;95821.00;;;;5115492;28;20202;-72
2022/09/17 08:12:31;;;;;;;1.03;0.87;;;;;8.90;95823.00;;;;5114592;28;20224;-71
2022/09/17 08:14:59;;;;;;;0.50;0.50;;;;;9.10;95830.00;;;;5097810;28;20237;-70
2022/09/17 08:17:26;;;;;;;1.37;1.27;;;;;8.90;95824.00;;;;5115385;28;20218;-71
2022/09/17 08:19:53;;;;;;;0.60;0.60;;;;;8.90;95832.00;;;;5115489;28;20211;-71
2022/09/17 08:22:20;;;;;;;1.10;1.10;;;;;8.90;95840.00;;;;5115159;28;20316;-70
2022/09/17 08:24:48;;;;;;;0.80;0.80;;;;;8.70;95834.00;;;;5115238;28;20216;-71
2022/09/17 08:27:15;;;;;;;1.00;0.97;;;;;8.90;95834.00;;;;5115121;28;20250;-75
2022/09/17 08:29:42;;;;;;;0.53;0.53;;;;;9.20;95825.00;;;;5115252;28;20198;-75
2022/09/17 08:32:10;;;;;;;0.60;0.60;;;;;9.50;95815.00;;;;5115370;28;20248;-74
2022/09/17 08:34:37;;;;;;;0.63;0.63;;;;;9.90;95820.00;;;;5115153;28;20255;-75
2022/09/17 08:37:04;;;;;;;0.70;0.70;;;;;9.90;95835.00;;;;5114992;28;20279;-70
2022/09/17 08:39:33;;;;;;;0.60;0.60;;;;;9.80;95830.00;;;;5114997;28;20280;-72
2022/09/17 08:42:08;;;;;;;0.60;0.60;;;;;9.80;95824.00;;;;5114748;28;20225;-71
2022/09/17 08:44:41;;;;;;;22.67;1.20;;;;;9.60;95833.00;;;;5114937;28;20197;-69
2022/09/17 08:47:17;;;;;;;0.50;0.50;;;;;9.60;95833.00;;;;5114861;28;20213;-72
2022/09/17 08:49:51;;;;;;;0.70;0.70;;;;;9.50;95843.00;;;;5096901;28;20213;-71
2022/09/17 08:52:40;;;;;;;2.13;1.93;;;;;9.50;95833.00;;;;5114571;28;20669;-70
2022/09/17 08:55:16;;;;;;;1.70;1.40;;;;;9.50;95831.00;;;;5114796;28;20209;-71
2022/09/17 08:57:51;;;;;;;0.70;0.70;;;;;9.50;95844.00;;;;5114519;28;20218;-71
2022/09/17 09:00:21;;;;;;;0.70;0.70;;;;;9.50;95845.00;;;;5096464;28;20633;-71
2022/09/17 09:03:15;;;;;;;0.70;0.70;;;;;9.40;95859.00;;;;5114369;28;20245;-69
2022/09/17 09:05:46;;;;;;;0.60;0.60;;;;;9.40;95835.00;;;;5114545;28;20641;-68
2022/09/17 09:08:21;;;;;;;0.80;0.80;;;;;9.50;95845.00;;;;5114432;28;20270;-72
2022/09/17 09:10:54;;;;;;;1.87;1.77;;;;;9.60;95846.00;;;;5114510;28;20269;-71
2022/09/17 09:13:23;;;;;;;0.80;0.80;;;;;9.60;95843.00;;;;5114392;28;20684;-71
2022/09/17 09:15:55;;;;;;;0.70;0.70;;;;;9.60;95853.00;;;;5114458;28;20206;-70
2022/09/17 09:18:25;;;;;;;1.20;1.20;;;;;9.80;95842.00;;;;5114447;28;20229;-70
2022/09/17 09:20:54;;;;;;;0.83;0.83;;;;;9.90;95857.00;;;;5114191;28;20300;-67
2022/09/17 09:23:28;;;;;;;2.47;0.90;;;;;10.10;95847.00;;;;5113329;28;20304;-71
2022/09/17 09:26:05;;;;;;;0.57;0.57;;;;;10.20;95849.00;;;;5114224;28;20237;-70
2022/09/17 09:28:45;;;;;;;0.70;0.70;;;;;9.90;95853.00;;;;5114248;28;20212;-72
2022/09/17 09:31:26;;;;;;;0.70;0.70;;;;;10.00;95842.00;;;;5114245;28;20712;-72
2022/09/17 09:33:55;;;;;;;0.90;0.90;;;;;10.10;95848.00;;;;5114140;28;20230;-72
2022/09/17 09:36:21;;;;;;;0.60;0.60;;;;;10.40;95845.00;;;;5114193;28;20194;-72
2022/09/17 09:38:55;;;;;;;0.70;0.70;;;;;10.40;95851.00;;;;5096159;28;20225;-73
2022/09/17 09:41:30;;;;;;;0.60;0.60;;;;;10.60;95837.00;;;;5114215;28;20594;-73
2022/09/17 09:44:03;;;;;;;0.93;0.67;;;;;10.60;95839.00;;;;5114081;28;20312;-72
2022/09/17 09:47:07;;;;;;;0.60;0.60;;;;;10.80;95841.00;;;;5114145;28;20204;-70
2022/09/17 09:49:52;;;;;;;0.60;0.60;;;;;10.80;95859.00;;;;5096273;28;20638;-72
2022/09/17 09:52:31;;;;;;;0.50;0.50;;;;;10.40;95843.00;;;;5114099;28;20220;-71
2022/09/17 09:55:22;;;;;;;0.60;0.60;;;;;10.60;95851.00;;;;5114108;28;20214;-71
2022/09/17 09:57:53;;;;;;;1.30;1.20;;;;;10.60;95840.00;;;;5123722;28;20269;-71
2022/09/17 10:00:28;;;;;;;0.60;0.60;;;;;10.70;95846.00;;;;5119555;28;20221;-72
2022/09/17 10:03:01;;;;;;;0.80;0.80;;;;;10.80;95852.00;;;;5113967;28;20185;-72
2022/09/17 10:05:29;;;;;;;2.40;1.47;;;;;10.80;95843.00;;;;5113854;28;20287;-72
2022/09/17 10:07:57;;;;;;;0.73;0.73;;;;;11.00;95831.00;;;;5095919;28;20214;-73
2022/09/17 10:10:26;;;;;;;0.70;0.70;;;;;11.50;95850.00;;;;5113745;28;20707;-71
2022/09/17 10:13:06;;;;;;;0.70;0.70;;;;;11.40;95847.00;;;;5113727;28;20196;-71
2022/09/17 10:15:33;;;;;;;0.70;0.70;;;;;11.10;95843.00;;;;5113552;28;20226;-68
2022/09/17 10:18:15;;;;;;;4.90;3.23;;;;;11.10;95832.00;;;;5113572;28;20205;-70
2022/09/17 10:21:17;;;;;;;0.50;0.50;;;;;11.30;95832.00;;;;5113602;28;20260;-71
2022/09/17 10:23:45;;;;;;;0.60;0.60;;;;;11.60;95836.00;;;;5113661;28;20206;-70
2022/09/17 10:26:21;;;;;;;0.60;0.60;;;;;11.80;95838.00;;;;5095599;28;20236;-71
2022/09/17 10:28:51;;;;;;;13.43;1.97;;;;;12.00;95832.00;;;;5113670;28;20194;-70
2022/09/17 10:31:18;;;;;;;1.00;0.93;;;;;11.80;95845.00;;;;5096242;28;20226;-71
2022/09/17 10:33:57;;;;;;;0.60;0.60;;;;;11.60;95836.00;;;;5114845;28;20532;-71
2022/09/17 10:36:40;;;;;;;0.60;0.60;;;;;11.80;95839.00;;;;5116200;28;20522;-70
2022/09/17 10:39:29;;;;;;;0.87;0.87;;;;;12.40;95830.00;;;;5117131;28;20273;-71
2022/09/17 10:41:57;;;;;;;0.60;0.60;;;;;11.90;95847.00;;;;5116860;28;20668;-69
2022/09/17 10:44:25;;;;;;;0.50;0.50;;;;;11.70;95838.00;;;;5116908;28;20228;-71
2022/09/17 10:46:53;;;;;;;1.07;0.77;;;;;12.10;95846.00;;;;5116933;28;20291;-71
2022/09/17 10:49:32;;;;;;;0.70;0.70;;;;;11.90;95825.00;;;;5116745;28;20190;-72
2022/09/17 10:52:13;;;;;;;0.70;0.70;;;;;12.50;95829.00;;;;5116685;28;20674;-67
2022/09/17 10:55:07;;;;;;;0.60;0.60;;;;;12.70;95857.00;;;;5116621;28;20194;-72
2022/09/17 10:58:13;;;;;;;0.70;0.70;;;;;12.10;95839.00;;;;5116594;28;20233;-69
2022/09/17 11:00:54;;;;;;;0.50;0.50;;;;;11.90;95862.00;;;;5113473;28;20338;-70
2022/09/17 11:03:55;;;;;;;0.63;0.63;;;;;11.40;95852.00;;;;5099027;28;20205;-69
2022/09/17 11:06:48;;;;;;;0.60;0.60;;;;;11.40;95837.00;;;;5099633;28;20219;-70
2022/09/17 11:09:29;;;;;;;0.77;0.77;;;;;11.60;95846.00;;;;5101158;28;20233;-71
2022/09/17 11:12:14;;;;;;;0.63;0.63;;;;;11.80;95840.00;;;;5116359;28;20226;-72
2022/09/17 11:14:50;;;;;;;0.70;0.70;;;;;11.70;95838.00;;;;5116581;28;20254;-71
2022/09/17 11:17:37;;;;;;;0.50;0.50;;;;;11.50;95821.00;;;;5116486;28;20257;-72
2022/09/17 11:20:09;;;;;;;0.60;0.60;;;;;11.80;95821.00;;;;5116488;28;20593;-70
2022/09/17 11:22:49;;;;;;;0.60;0.60;;;;;12.30;95795.00;;;;5117285;28;20226;-71
2022/09/17 11:25:27;;;;;;;0.70;0.70;;;;;12.40;95810.00;;;;5117475;28;20217;-69
2022/09/17 11:28:08;;;;;;;0.60;0.60;;;;;12.40;95820.00;;;;5098694;28;20249;-71
2022/09/17 11:30:52;;;;;;;0.60;0.60;;;;;12.90;95783.00;;;;5098609;28;20198;-70
2022/09/17 11:33:51;;;;;;;0.50;0.50;;;;;13.30;95782.00;;;;5116240;28;20217;-71
2022/09/17 11:36:23;;;;;;;0.50;0.50;;;;;13.30;95785.00;;;;5116184;28;20216;-72
2022/09/17 11:38:51;;;;;;;0.60;0.60;;;;;13.20;95801.00;;;;5116156;28;20218;-72
2022/09/17 11:41:22;;;;;;;0.63;0.63;;;;;13.20;95780.00;;;;5115987;28;20669;-71
2022/09/17 11:44:02;;;;;;;0.50;0.50;;;;;13.40;95783.00;;;;5116034;28;20326;-71
2022/09/17 11:46:34;;;;;;;0.50;0.50;;;;;13.20;95768.00;;;;5115028;28;20218;-70
2022/09/17 11:49:04;;;;;;;0.50;0.50;;;;;13.50;95791.00;;;;5115687;28;20222;-68
2022/09/17 11:51:34;;;;;;;1.50;1.07;;;;;13.00;95788.00;;;;5115735;28;20210;-71
2022/09/17 11:54:11;;;;;;;0.60;0.60;;;;;13.10;95788.00;;;;5115618;28;20221;-71
2022/09/17 11:56:43;;;;;;;0.50;0.50;;;;;12.70;95777.00;;;;5115719;28;20223;-65
2022/09/17 11:59:15;;;;;;;0.70;0.70;;;;;13.20;95787.00;;;;5115533;28;20254;-75
2022/09/17 12:01:48;;;;;;;0.60;0.60;;;;;13.00;95780.00;;;;5115663;28;20633;-74
2022/09/17 12:04:35;;;;;;;0.60;0.60;;;;;13.20;95782.00;;;;5115680;28;20220;-74
2022/09/17 12:07:13;;;;;;;9.80;1.73;;;;;13.60;95768.00;;;;5115678;28;20201;-74
2022/09/17 12:09:43;;;;;;;0.50;0.50;;;;;13.80;95784.00;;;;5115446;28;20277;-72
2022/09/17 12:12:16;;;;;;;0.53;0.53;;;;;13.80;95779.00;;;;5115468;28;20278;-72
2022/09/17 12:14:49;;;;;;;0.90;0.90;;;;;13.20;95792.00;;;;5115524;28;20202;-73
2022/09/17 12:17:22;;;;;;;0.60;0.60;;;;;13.40;95785.00;;;;5115472;28;20213;-72
2022/09/17 12:19:54;;;;;;;0.60;0.60;;;;;13.60;95785.00;;;;5097342;28;20570;-72
2022/09/17 12:22:24;;;;;;;0.50;0.50;;;;;13.40;95789.00;;;;5115195;28;20222;-73
2022/09/17 12:24:52;;;;;;;0.63;0.63;;;;;13.30;95784.00;;;;5115178;28;20197;-72
2022/09/17 12:27:30;;;;;;;0.50;0.50;;;;;13.60;95776.00;;;;5115268;28;20240;-71
2022/09/17 12:30:10;;;;;;;0.67;0.67;;;;;13.80;95780.00;;;;5116522;28;20200;-73
2022/09/17 12:33:15;;;;;;;0.63;0.63;;;;;14.00;95784.00;;;;5115251;28;20229;-70
2022/09/17 12:36:02;;;;;;;0.60;0.60;;;;;13.50;95791.00;;;;5013403;28;20205;-72
2022/09/17 12:39:08;;;;;;;0.60;0.60;;;;;12.30;95794.00;;;;5105460;28;20233;-72
2022/09/17 12:41:48;;;;;;;0.50;0.50;;;;;12.10;95815.00;;;;5118372;28;20305;-71
2022/09/17 12:44:34;;;;;;;0.50;0.50;;;;;11.50;95845.00;;;;5124821;28;20321;-73
2022/09/17 12:47:28;;;;;;;0.93;0.93;;;;;11.30;95833.00;;;;5119493;28;20217;-72